createdAt,value
2019-05-13T00:00:59.381Z,8.93
2019-05-13T00:03:30.471Z,12.35
2019-05-13T00:06:01.095Z,13.32
2019-05-13T00:08:33.800Z,8.50
2019-05-13T00:11:04.392Z,9.15
2019-05-13T00:13:34.622Z,8.38
2019-05-13T00:16:05.018Z,9.65
2019-05-13T00:18:35.383Z,7.85
2019-05-13T00:21:05.668Z,10.10
2019-05-13T00:23:36.040Z,10.70
2019-05-13T00:26:07.234Z,10.32
2019-05-13T00:28:38.465Z,10.35
2019-05-13T00:31:09.616Z,10.90
2019-05-13T00:33:40.850Z,9.00
2019-05-13T00:36:14.102Z,10.03
2019-05-13T00:38:44.573Z,8.43
2019-05-13T00:41:15.001Z,11.12
2019-05-13T00:43:46.325Z,12.60
2019-05-13T00:46:17.297Z,11.15
2019-05-13T00:48:48.672Z,9.98
2019-05-13T00:51:19.056Z,7.50
2019-05-13T00:53:49.354Z,8.85
2019-05-13T00:56:20.440Z,7.33
2019-05-13T00:58:53.979Z,10.05
2019-05-13T01:01:24.427Z,8.65
2019-05-13T01:03:56.616Z,9.40
2019-05-13T01:06:27.753Z,13.22
2019-05-13T01:08:59.000Z,7.97
2019-05-13T01:11:30.139Z,12.35
2019-05-13T01:14:01.338Z,8.05
2019-05-13T01:16:34.110Z,7.65
2019-05-13T01:19:05.021Z,7.92
2019-05-13T01:21:36.169Z,7.67
2019-05-13T01:24:07.516Z,13.28
2019-05-13T01:26:38.722Z,8.88
2019-05-13T01:29:09.920Z,10.80
2019-05-13T01:31:43.470Z,9.08
2019-05-13T01:34:14.437Z,8.23
2019-05-13T01:36:45.656Z,11.43
2019-05-13T01:39:16.873Z,10.48
2019-05-13T01:41:47.721Z,9.18
2019-05-13T01:44:19.116Z,12.37
2019-05-13T01:46:50.268Z,11.12
2019-05-13T01:49:23.950Z,10.68
2019-05-13T01:51:54.666Z,10.03
2019-05-13T01:54:26.223Z,10.78
2019-05-13T01:56:57.456Z,7.87
2019-05-13T01:59:28.673Z,9.35
2019-05-13T02:01:59.799Z,8.45
2019-05-13T02:04:30.973Z,8.08
2019-05-13T02:07:04.068Z,7.25
2019-05-13T02:09:35.269Z,9.05
2019-05-13T02:12:06.430Z,8.83
2019-05-13T02:14:37.869Z,6.92
2019-05-13T02:17:09.081Z,3.80
2019-05-13T02:19:40.315Z,9.43
2019-05-13T02:22:14.408Z,6.03
2019-05-13T02:24:44.658Z,7.42
2019-05-13T02:27:15.713Z,7.67
2019-05-13T02:29:46.973Z,5.00
2019-05-13T02:32:18.209Z,5.42
2019-05-13T02:34:49.432Z,6.08
2019-05-13T02:37:23.196Z,5.50
2019-05-13T02:39:53.389Z,6.20
2019-05-13T02:42:24.689Z,8.23
2019-05-13T02:44:56.126Z,7.87
2019-05-13T02:47:27.547Z,4.55
2019-05-13T02:50:03.878Z,3.05
2019-05-13T02:52:33.480Z,8.30
2019-05-13T02:55:05.624Z,6.50
2019-05-13T02:57:36.761Z,4.90
2019-05-13T03:00:12.502Z,8.63
2019-05-13T03:02:43.758Z,4.95
2019-05-13T03:05:14.809Z,4.90
2019-05-13T03:07:45.142Z,12.23
2019-05-13T03:10:15.657Z,4.58
2019-05-13T03:12:45.976Z,4.37
2019-05-13T03:15:17.391Z,5.42
2019-05-13T03:18:05.968Z,4.03
2019-05-13T03:20:37.950Z,3.85
2019-05-13T03:23:13.067Z,4.80
2019-05-13T03:25:43.154Z,8.18
2019-05-13T03:28:14.139Z,5.33
2019-05-13T03:30:46.289Z,3.67
2019-05-13T03:33:19.933Z,7.03
2019-05-13T03:35:55.930Z,3.42
2019-05-13T03:38:24.542Z,6.75
2019-05-13T03:40:57.386Z,5.70
2019-05-13T03:43:32.449Z,7.05
2019-05-13T03:46:05.140Z,3.83
2019-05-13T03:48:36.574Z,6.20
2019-05-13T03:51:08.086Z,6.92
2019-05-13T03:53:39.118Z,6.22
2019-05-13T03:56:12.871Z,17.95
2019-05-13T03:58:43.584Z,24.65
2019-05-13T04:01:15.050Z,11.53
2019-05-13T04:03:45.915Z,11.08
2019-05-13T04:06:16.821Z,5.10
2019-05-13T04:08:47.730Z,4.33
2019-05-13T04:11:18.830Z,5.45
2019-05-13T04:13:52.436Z,7.90
2019-05-13T04:16:23.811Z,13.48
2019-05-13T04:18:54.505Z,6.92
2019-05-13T04:21:25.920Z,8.58
2019-05-13T04:23:56.965Z,14.23
2019-05-13T04:26:28.336Z,5.95
2019-05-13T04:29:03.013Z,27.65
2019-05-13T04:31:33.309Z,18.52
2019-05-13T04:34:05.690Z,10.85
2019-05-13T04:36:36.545Z,16.95
2019-05-13T04:39:08.321Z,16.97
2019-05-13T04:41:42.226Z,18.35
2019-05-13T04:44:13.022Z,15.38
2019-05-13T04:46:44.656Z,10.65
2019-05-13T04:49:16.072Z,7.62
2019-05-13T04:51:46.253Z,18.15
2019-05-13T04:54:17.468Z,7.83
2019-05-13T04:56:48.752Z,36.13
2019-05-13T04:59:22.679Z,28.15
2019-05-13T05:02:38.067Z,23.40
2019-05-13T05:05:08.227Z,19.70
2019-05-13T05:07:46.248Z,14.83
2019-05-13T05:11:07.472Z,14.13
2019-05-13T05:14:22.448Z,13.13
2019-05-13T05:17:32.896Z,11.70
2019-05-13T05:20:15.939Z,17.92
2019-05-13T05:23:33.465Z,17.40
2019-05-13T05:26:43.524Z,15.00
2019-05-13T05:29:24.009Z,12.07
2019-05-13T05:32:18.127Z,15.43
2019-05-13T05:35:38.559Z,15.98
2019-05-13T05:38:25.677Z,12.35
2019-05-13T05:40:54.720Z,14.45
2019-05-13T05:43:27.337Z,15.35
2019-05-13T05:45:58.948Z,10.85
2019-05-13T05:48:32.526Z,9.23
2019-05-13T05:51:05.517Z,16.82
2019-05-13T05:53:38.580Z,13.15
2019-05-13T05:56:12.513Z,10.70
2019-05-13T05:58:45.900Z,11.93
2019-05-13T06:01:19.104Z,19.70
2019-05-13T06:03:51.998Z,11.95
2019-05-13T06:06:23.461Z,8.73
2019-05-13T06:08:54.797Z,9.85
2019-05-13T06:11:25.981Z,11.05
2019-05-13T06:13:57.245Z,10.18
2019-05-13T12:01:15.877Z,6.72
2019-05-13T12:03:47.228Z,8.55
2019-05-13T12:06:18.145Z,9.40
2019-05-13T12:08:52.097Z,9.15
2019-05-13T12:11:22.573Z,7.87
2019-05-13T12:13:53.918Z,9.23
2019-05-13T12:16:24.658Z,6.75
2019-05-13T12:18:55.764Z,10.80
2019-05-13T12:21:27.516Z,9.18
2019-05-13T12:23:57.969Z,11.08
2019-05-13T12:26:32.693Z,7.08
2019-05-13T12:29:02.836Z,6.37
2019-05-13T12:31:34.334Z,9.55
2019-05-13T12:34:05.518Z,7.33
2019-05-13T12:36:35.953Z,6.70
2019-05-13T12:39:07.172Z,13.03
2019-05-13T12:41:38.317Z,8.93
2019-05-13T12:44:12.694Z,6.90
2019-05-13T12:46:49.991Z,12.00
2019-05-13T12:49:16.399Z,5.33
2019-05-13T12:51:46.462Z,7.25
2019-05-13T12:54:17.698Z,6.85
2019-05-13T12:56:52.172Z,6.37
2019-05-13T12:59:22.388Z,10.20
2019-05-13T13:01:53.595Z,8.18
2019-05-13T13:04:24.933Z,6.28
2019-05-13T13:06:56.332Z,7.33
2019-05-13T13:09:26.773Z,9.33
2019-05-13T13:11:58.177Z,7.53
2019-05-13T13:14:36.303Z,8.65
2019-05-13T13:17:04.223Z,6.90
2019-05-13T13:19:34.744Z,6.05
2019-05-13T13:22:07.826Z,6.33
2019-05-13T13:24:50.535Z,6.78
2019-05-13T13:27:19.403Z,6.55
2019-05-13T13:29:46.653Z,6.78
2019-05-13T13:32:18.001Z,6.42
2019-05-13T13:34:53.665Z,6.55
2019-05-13T13:37:22.730Z,12.13
2019-05-13T13:39:55.391Z,7.87
2019-05-13T13:42:27.105Z,9.18
2019-05-13T13:44:58.327Z,8.15
2019-05-13T13:47:32.469Z,8.35
2019-05-13T13:50:02.529Z,7.80
2019-05-13T13:52:34.020Z,8.30
2019-05-13T13:55:08.783Z,5.28
2019-05-13T13:57:38.314Z,6.47
2019-05-13T14:00:26.429Z,8.55
2019-05-13T14:02:43.257Z,7.85
2019-05-13T14:05:14.701Z,8.93
2019-05-13T14:07:46.105Z,5.97
2019-05-13T14:10:17.856Z,5.03
2019-05-13T14:12:49.262Z,8.93
2019-05-13T14:15:21.537Z,7.45
2019-05-13T14:17:53.189Z,5.30
2019-05-13T14:20:24.417Z,9.13
2019-05-13T14:22:58.078Z,8.50
2019-05-13T14:25:32.306Z,7.62
2019-05-13T14:28:03.481Z,6.37
2019-05-13T14:30:35.062Z,8.08
2019-05-13T14:33:06.393Z,7.17
2019-05-13T14:35:37.797Z,5.80
2019-05-13T14:38:11.725Z,5.45
2019-05-13T14:40:42.160Z,9.80
2019-05-13T14:43:13.734Z,6.55
2019-05-13T14:45:44.946Z,5.08
2019-05-13T14:48:17.251Z,5.30
2019-05-13T14:50:48.467Z,4.60
2019-05-13T14:53:21.469Z,10.35
2019-05-13T14:55:53.604Z,7.20
2019-05-13T14:58:25.059Z,5.15
2019-05-13T15:01:11.511Z,4.95
2019-05-13T15:03:29.111Z,5.45
2019-05-13T15:06:02.786Z,6.87
2019-05-13T15:08:34.115Z,5.58
2019-05-13T15:11:05.552Z,8.18
2019-05-13T15:13:37.107Z,7.47
2019-05-13T15:16:09.486Z,4.40
2019-05-13T15:18:41.723Z,5.00
2019-05-13T15:21:13.037Z,5.12
2019-05-13T15:23:44.261Z,4.92
2019-05-13T15:26:15.615Z,4.47
2019-05-13T15:28:48.216Z,4.60
2019-05-13T15:31:21.429Z,5.95
2019-05-13T15:33:52.658Z,2.92
2019-05-13T15:36:23.880Z,4.12
2019-05-13T15:38:55.118Z,5.87
2019-05-13T15:41:26.409Z,4.65
2019-05-13T15:43:57.745Z,3.98
2019-05-13T15:46:29.098Z,5.08
2019-05-13T15:49:01.658Z,4.37
2019-05-13T15:51:33.673Z,5.25
2019-05-13T15:54:05.461Z,3.80
2019-05-13T15:56:36.860Z,4.30
2019-05-13T15:59:08.937Z,4.60
2019-05-13T16:01:41.483Z,5.83
2019-05-13T16:04:13.732Z,2.83
2019-05-13T16:06:45.237Z,6.28
2019-05-13T16:09:16.554Z,6.65
2019-05-13T16:11:48.159Z,4.47
2019-05-13T16:14:22.007Z,5.15
2019-05-13T16:16:52.956Z,5.08
2019-05-13T16:19:24.342Z,7.58
2019-05-13T16:21:55.634Z,9.03
2019-05-13T16:24:26.956Z,10.35
2019-05-13T16:26:58.556Z,6.35
2019-05-13T16:29:31.549Z,6.47
2019-05-13T16:32:03.210Z,4.40
2019-05-13T16:34:34.112Z,5.42
2019-05-13T16:37:05.221Z,4.97
2019-05-13T16:39:36.948Z,6.10
2019-05-13T16:42:07.998Z,5.97
2019-05-13T16:44:38.986Z,5.67
2019-05-13T16:47:12.180Z,4.60
2019-05-13T16:49:45.418Z,6.85
2019-05-13T16:52:17.576Z,3.02
2019-05-13T16:54:52.763Z,3.05
2019-05-13T16:57:23.089Z,4.55
2019-05-13T16:59:54.564Z,6.05
2019-05-13T17:02:26.097Z,5.78
2019-05-13T17:04:57.891Z,5.10
2019-05-13T17:07:31.679Z,3.90
2019-05-13T17:10:03.830Z,5.05
2019-05-13T17:12:36.360Z,3.15
2019-05-13T17:15:08.274Z,4.00
2019-05-13T17:17:41.039Z,3.30
2019-05-13T17:20:12.713Z,3.87
2019-05-13T17:22:44.323Z,4.42
2019-05-13T17:25:16.332Z,5.72
2019-05-13T17:27:47.475Z,4.05
2019-05-13T17:30:19.116Z,6.53
2019-05-13T17:32:51.612Z,7.28
2019-05-13T17:35:22.926Z,7.65
2019-05-13T17:37:54.412Z,7.22
2019-05-13T17:40:25.757Z,6.22
2019-05-13T17:42:57.106Z,4.12
2019-05-13T17:45:27.607Z,5.42
2019-05-13T17:47:57.930Z,5.35
2019-05-13T17:50:31.377Z,4.37
2019-05-13T17:53:02.078Z,4.35
2019-05-13T17:55:35.464Z,6.00
2019-05-13T17:58:06.695Z,5.47
2019-05-13T18:00:37.706Z,3.98
2019-05-13T18:03:11.192Z,4.35
2019-05-13T18:05:42.165Z,4.75
2019-05-13T18:08:13.508Z,4.53
2019-05-13T18:10:44.966Z,5.40
2019-05-13T18:13:15.944Z,4.15
2019-05-13T18:15:46.924Z,4.75
2019-05-13T18:18:17.920Z,5.25
2019-05-13T18:20:49.251Z,3.10
2019-05-13T18:23:20.599Z,5.40
2019-05-13T18:25:52.865Z,4.03
2019-05-13T18:28:30.213Z,4.53
2019-05-13T18:30:57.727Z,7.83
2019-05-13T18:33:32.015Z,4.58
2019-05-13T18:36:04.764Z,11.53
2019-05-13T18:38:35.151Z,6.10
2019-05-13T18:41:06.131Z,4.65
2019-05-13T18:43:37.316Z,4.67
2019-05-13T18:46:08.506Z,2.80
2019-05-13T18:48:57.368Z,3.17
2019-05-13T18:51:13.883Z,6.95
2019-05-13T18:53:45.142Z,4.70
2019-05-13T18:56:16.716Z,4.83
2019-05-13T18:58:48.637Z,5.53
2019-05-13T19:01:21.591Z,3.12
2019-05-13T19:03:52.733Z,5.87
2019-05-13T19:06:24.021Z,9.38
2019-05-13T19:08:56.239Z,8.38
2019-05-13T19:11:27.610Z,4.33
2019-05-13T19:13:58.679Z,6.83
2019-05-13T19:16:31.927Z,5.20
2019-05-13T19:19:12.355Z,6.47
2019-05-13T19:21:35.371Z,5.58
2019-05-13T19:24:06.625Z,5.17
2019-05-13T19:26:38.034Z,4.72
2019-05-13T19:29:12.193Z,4.92
2019-05-13T19:31:43.106Z,4.67
2019-05-13T19:34:14.031Z,6.90
2019-05-13T19:36:45.385Z,7.08
2019-05-13T19:39:16.788Z,5.53
2019-05-13T19:41:47.839Z,4.67
2019-05-13T19:44:19.169Z,5.72
2019-05-13T19:46:52.266Z,6.97
2019-05-13T19:49:32.613Z,5.10
2019-05-13T19:51:56.292Z,8.48
2019-05-13T19:54:27.482Z,5.65
2019-05-13T19:57:01.381Z,4.75
2019-05-13T19:59:32.380Z,5.62
2019-05-13T20:02:03.957Z,4.95
2019-05-13T20:04:35.370Z,4.80
2019-05-13T20:07:06.037Z,4.42
2019-05-13T20:09:36.331Z,5.03
2019-05-13T20:12:06.857Z,4.80
2019-05-13T20:14:38.184Z,4.58
2019-05-13T20:17:09.607Z,4.45
2019-05-13T20:19:47.663Z,4.30
2019-05-13T20:22:12.871Z,5.78
2019-05-13T20:24:45.096Z,6.30
2019-05-13T20:27:16.885Z,5.83
2019-05-13T20:29:48.016Z,4.95
2019-05-13T20:32:22.070Z,9.15
2019-05-13T20:34:53.084Z,3.83
2019-05-13T20:37:24.349Z,7.67
2019-05-13T20:39:55.566Z,5.67
2019-05-13T20:42:26.056Z,4.17
2019-05-13T20:44:56.365Z,9.35
2019-05-13T20:47:27.667Z,6.37
2019-05-13T20:50:02.205Z,5.95
2019-05-13T20:52:31.952Z,6.78
2019-05-13T20:55:03.032Z,4.58
2019-05-13T20:57:35.408Z,6.05
2019-05-13T21:00:07.431Z,5.15
2019-05-13T21:02:41.695Z,5.97
2019-05-13T21:05:12.202Z,7.62
2019-05-13T21:07:43.495Z,4.47
2019-05-13T21:10:14.829Z,5.12
2019-05-13T21:12:46.095Z,5.85
2019-05-13T21:15:16.880Z,5.15
2019-05-13T21:17:47.518Z,7.80
2019-05-13T21:20:23.242Z,3.98
2019-05-13T21:22:51.789Z,4.72
2019-05-13T21:25:22.903Z,7.53
2019-05-13T21:27:54.129Z,4.40
2019-05-13T21:30:25.943Z,4.97
2019-05-13T21:32:57.316Z,6.87
2019-05-13T21:35:28.658Z,6.95
2019-05-13T21:38:01.725Z,5.72
2019-05-13T21:40:32.740Z,4.25
2019-05-13T21:43:05.318Z,6.08
2019-05-13T21:45:36.538Z,5.55
2019-05-13T21:48:07.772Z,6.40
2019-05-13T21:50:41.288Z,5.00
2019-05-13T21:53:12.533Z,4.65
2019-05-13T21:55:43.721Z,10.05
2019-05-13T21:58:14.916Z,11.57
2019-05-13T22:00:48.302Z,8.83
2019-05-13T22:03:19.809Z,4.90
2019-05-13T22:05:51.660Z,5.55
2019-05-13T22:08:22.573Z,7.35
2019-05-13T22:10:53.798Z,8.80
2019-05-13T22:13:27.077Z,8.70
2019-05-13T22:15:58.307Z,12.43
2019-05-13T22:18:31.436Z,7.58
2019-05-13T22:21:03.044Z,8.45
2019-05-13T22:23:34.381Z,8.23
2019-05-13T22:26:05.784Z,13.93
2019-05-13T22:28:37.097Z,6.80
2019-05-13T22:31:08.449Z,9.60
2019-05-13T22:33:41.242Z,11.03
2019-05-13T22:36:12.712Z,11.00
2019-05-13T22:38:44.163Z,7.85
2019-05-13T22:41:15.477Z,10.13
2019-05-13T22:43:55.705Z,11.00
2019-05-13T22:46:21.388Z,6.78
2019-05-13T22:48:52.357Z,11.25
2019-05-13T22:51:23.657Z,8.53
2019-05-13T22:53:54.957Z,7.58
2019-05-13T22:56:26.161Z,6.55
2019-05-13T22:58:57.343Z,7.20
2019-05-13T23:01:28.541Z,8.78
2019-05-13T23:04:02.075Z,13.85
2019-05-13T23:06:33.609Z,8.68
2019-05-13T23:09:05.958Z,9.05
2019-05-13T23:11:37.161Z,9.13
2019-05-13T23:14:10.934Z,7.90
2019-05-13T23:16:42.357Z,9.28
2019-05-13T23:19:13.571Z,8.35
2019-05-13T23:21:46.020Z,11.68
2019-05-13T23:24:17.135Z,12.37
2019-05-13T23:26:48.422Z,11.18
2019-05-13T23:29:21.435Z,8.68
2019-05-13T23:31:52.814Z,4.03
2019-05-13T23:34:24.149Z,9.03
2019-05-13T23:36:55.363Z,10.43
2019-05-13T23:39:26.772Z,9.68
2019-05-13T23:41:58.465Z,11.00
2019-05-13T23:44:32.266Z,7.05
2019-05-13T23:47:04.953Z,7.47
2019-05-13T23:49:36.965Z,9.58
2019-05-13T23:52:08.241Z,9.88
2019-05-13T23:54:39.594Z,6.28
2019-05-13T23:57:11.841Z,12.70
2019-05-13T23:59:42.975Z,7.78
